Time;durP1;ratioP1;P1;durP2;ratioP2;P2;SDS_P1;SDS_P2;PMS_P1;PMS_P2;Temp;Humidity;BMP_temperature;BMP_pressure;BME280_temperature;BME280_humidity;BME280_pressure;Samples;Min_cycle;Max_cycle;Signal;HPM_P1;HPM_P2
2023/06/03 00:00:41;;;;;;;10.82;10.10;;;;;;;;;;5035442;28;20041;-52
2023/06/03 00:03:13;;;;;;;10.38;9.68;;;;;;;;;;5035101;28;20060;-52
2023/06/03 00:05:42;;;;;;;11.55;10.85;;;;;;;;;;5034598;28;20033;-51
2023/06/03 00:08:08;;;;;;;11.45;10.57;;;;;;;;;;5033093;28;20248;-52
2023/06/03 00:10:33;;;;;;;10.45;9.75;;;;;;;;;;5031625;28;20508;-54
2023/06/03 00:12:59;;;;;;;11.48;10.30;;;;;;;;;;5033711;28;20116;-51
2023/06/03 00:15:24;;;;;;;12.15;11.43;;;;;;;;;;5038246;28;20071;-50
2023/06/03 00:17:50;;;;;;;11.35;10.65;;;;;;;;;;5036463;28;20025;-50
2023/06/03 00:20:16;;;;;;;11.65;10.60;;;;;;;;;;5035599;28;20578;-52
2023/06/03 00:22:41;;;;;;;11.45;10.75;;;;;;;;;;5032998;28;20033;-54
2023/06/03 00:25:08;;;;;;;11.30;10.50;;;;;;;;;;5037058;28;20029;-51
2023/06/03 00:27:34;;;;;;;11.07;10.38;;;;;;;;;;5039006;28;20045;-53
2023/06/03 00:30:04;;;;;;;10.80;10.00;;;;;;;;;;5037878;28;20033;-54
2023/06/03 00:32:30;;;;;;;10.88;10.18;;;;;;;;;;5036108;28;20045;-52
2023/06/03 00:34:55;;;;;;;10.48;9.88;;;;;;;;;;5037207;28;20047;-54
2023/06/03 00:37:20;;;;;;;11.05;10.35;;;;;;;;;;5037906;28;20052;-54
2023/06/03 00:39:46;;;;;;;10.55;9.85;;;;;;;;;;5034399;28;20117;-53
2023/06/03 00:42:11;;;;;;;12.18;11.18;;;;;;;;;;5037852;28;20499;-52
2023/06/03 00:44:37;;;;;;;9.50;8.90;;;;;;;;;;5035895;28;20037;-53
2023/06/03 00:47:03;;;;;;;10.93;10.23;;;;;;;;;;5033145;28;20079;-50
2023/06/03 00:49:29;;;;;;;10.90;10.20;;;;;;;;;;5034609;28;20124;-54
2023/06/03 00:51:55;;;;;;;12.20;11.23;;;;;;;;;;5034943;28;20045;-54
2023/06/03 00:54:20;;;;;;;10.85;10.15;;;;;;;;;;5035793;28;20044;-51
2023/06/03 00:56:46;;;;;;;13.85;13.05;;;;;;;;;;5044897;28;20391;-53
2023/06/03 00:59:16;;;;;;;12.90;12.10;;;;;;;;;;5034482;28;20470;-54
2023/06/03 01:01:44;;;;;;;13.05;12.30;;;;;;;;;;5036972;28;20044;-50
2023/06/03 01:04:18;;;;;;;12.45;11.75;;;;;;;;;;5034135;28;20041;-53
2023/06/03 01:06:52;;;;;;;15.07;14.18;;;;;;;;;;5036891;28;20025;-52
2023/06/03 01:09:36;;;;;;;14.13;13.32;;;;;;;;;;5034391;28;20788;-53
2023/06/03 01:12:26;;;;;;;15.98;15.07;;;;;;;;;;5036684;28;20044;-54
2023/06/03 01:14:59;;;;;;;15.27;14.40;;;;;;;;;;5033874;28;20037;-52
2023/06/03 01:17:28;;;;;;;17.98;16.77;;;;;;;;;;5035743;28;20115;-54
2023/06/03 01:19:56;;;;;;;22.85;21.63;;;;;;;;;;5034499;28;20529;-50
2023/06/03 01:22:26;;;;;;;25.92;24.23;;;;;;;;;;5034535;28;20132;-53
2023/06/03 01:25:01;;;;;;;21.30;20.05;;;;;;;;;;5036156;28;20036;-53
2023/06/03 01:27:27;;;;;;;19.95;18.83;;;;;;;;;;5032730;28;20120;-52
2023/06/03 01:29:52;;;;;;;19.13;18.05;;;;;;;;;;5035579;28;20590;-51
2023/06/03 01:32:18;;;;;;;20.30;19.20;;;;;;;;;;5036821;28;20460;-53
2023/06/03 01:34:44;;;;;;;22.30;21.08;;;;;;;;;;5034163;28;20044;-53
2023/06/03 01:37:10;;;;;;;23.27;21.98;;;;;;;;;;5035532;28;20405;-53
2023/06/03 01:39:39;;;;;;;22.83;21.42;;;;;;;;;;5036062;28;20028;-53
2023/06/03 01:42:07;;;;;;;24.58;23.02;;;;;;;;;;5034280;28;20045;-52
2023/06/03 01:44:32;;;;;;;20.88;19.75;;;;;;;;;;5036887;28;20124;-51
2023/06/03 01:46:57;;;;;;;22.92;21.70;;;;;;;;;;5036253;28;20129;-52
2023/06/03 01:49:24;;;;;;;22.85;21.45;;;;;;;;;;5035823;28;20124;-51
2023/06/03 01:51:49;;;;;;;24.98;23.60;;;;;;;;;;5033879;28;20087;-52
2023/06/03 01:54:15;;;;;;;26.33;24.92;;;;;;;;;;5032110;28;20061;-49
2023/06/03 01:56:42;;;;;;;27.83;26.35;;;;;;;;;;5034094;28;20052;-52
2023/06/03 01:59:07;;;;;;;31.38;29.70;;;;;;;;;;5033372;28;20087;-53
2023/06/03 02:01:33;;;;;;;30.42;28.83;;;;;;;;;;5035178;28;20371;-52
2023/06/03 02:03:58;;;;;;;31.00;29.35;;;;;;;;;;5034735;28;20535;-53
2023/06/03 02:06:23;;;;;;;32.20;30.50;;;;;;;;;;5034708;28;20634;-50
2023/06/03 02:08:49;;;;;;;33.85;31.90;;;;;;;;;;5030089;28;20535;-51
2023/06/03 02:11:14;;;;;;;35.25;33.08;;;;;;;;;;5035689;28;20029;-50
2023/06/03 02:13:39;;;;;;;42.10;39.88;;;;;;;;;;5033468;28;20155;-50
2023/06/03 02:16:05;;;;;;;42.20;39.95;;;;;;;;;;5035360;28;20826;-50
2023/06/03 02:18:31;;;;;;;52.08;49.45;;;;;;;;;;5033184;28;20020;-51
2023/06/03 02:20:57;;;;;;;47.25;44.53;;;;;;;;;;5034331;28;20119;-51
2023/06/03 02:23:22;;;;;;;45.65;43.33;;;;;;;;;;5032972;28;20163;-51
2023/06/03 02:25:48;;;;;;;48.10;45.65;;;;;;;;;;5032187;28;20068;-52
2023/06/03 02:28:16;;;;;;;53.60;50.80;;;;;;;;;;5036059;28;20041;-50
2023/06/03 02:30:42;;;;;;;56.22;53.40;;;;;;;;;;5034311;28;20459;-52
2023/06/03 02:33:07;;;;;;;58.50;55.53;;;;;;;;;;5035396;28;20094;-51
2023/06/03 02:35:32;;;;;;;57.47;54.58;;;;;;;;;;5031642;28;20413;-54
2023/06/03 02:37:58;;;;;;;62.97;59.35;;;;;;;;;;5032428;28;20474;-54
2023/06/03 02:40:23;;;;;;;54.97;52.17;;;;;;;;;;5031893;28;20437;-50
2023/06/03 02:42:48;;;;;;;57.95;55.00;;;;;;;;;;5034501;28;20494;-53
2023/06/03 02:45:14;;;;;;;59.78;56.75;;;;;;;;;;5033636;28;20114;-53
2023/06/03 02:47:39;;;;;;;56.05;53.20;;;;;;;;;;5033189;28;20040;-52
2023/06/03 02:50:05;;;;;;;56.63;53.70;;;;;;;;;;5031437;28;20352;-54
2023/06/03 02:52:33;;;;;;;56.92;54.03;;;;;;;;;;5031755;28;20415;-52
2023/06/03 02:54:59;;;;;;;57.28;54.38;;;;;;;;;;5033131;28;20111;-50
2023/06/03 02:57:25;;;;;;;56.78;53.92;;;;;;;;;;5034311;28;20474;-52
2023/06/03 02:59:50;;;;;;;55.38;52.58;;;;;;;;;;5034344;28;20036;-53
2023/06/03 03:02:19;;;;;;;52.30;49.65;;;;;;;;;;5033638;28;20037;-51
2023/06/03 03:04:44;;;;;;;50.60;48.00;;;;;;;;;;5031729;28;20061;-53
2023/06/03 03:07:10;;;;;;;51.42;48.78;;;;;;;;;;5031693;28;20091;-51
2023/06/03 03:09:38;;;;;;;43.75;41.50;;;;;;;;;;5033765;28;20052;-50
2023/06/03 03:12:04;;;;;;;46.42;44.05;;;;;;;;;;5034426;28;20029;-51
2023/06/03 03:14:30;;;;;;;48.83;46.35;;;;;;;;;;5031141;28;20044;-51
2023/06/03 03:16:55;;;;;;;48.70;46.22;;;;;;;;;;5031347;28;20029;-52
2023/06/03 03:19:21;;;;;;;47.75;45.17;;;;;;;;;;5032333;28;20047;-53
2023/06/03 03:21:46;;;;;;;44.75;42.42;;;;;;;;;;5037280;28;20144;-53
2023/06/03 03:24:12;;;;;;;44.58;42.30;;;;;;;;;;5034895;28;20045;-49
2023/06/03 03:26:37;;;;;;;38.03;35.92;;;;;;;;;;5034074;28;20224;-53
2023/06/03 03:29:02;;;;;;;41.85;39.63;;;;;;;;;;5035590;28;20038;-50
2023/06/03 03:31:29;;;;;;;38.45;36.30;;;;;;;;;;5033096;28;20575;-52
2023/06/03 03:33:55;;;;;;;41.30;39.15;;;;;;;;;;5031576;28;20482;-50
2023/06/03 03:36:22;;;;;;;40.28;37.67;;;;;;;;;;5035624;28;20187;-49
2023/06/03 03:39:04;;;;;;;38.75;36.65;;;;;;;;;;5031207;28;20088;-49
2023/06/03 03:41:30;;;;;;;35.08;33.17;;;;;;;;;;5034402;28;20037;-51
2023/06/03 03:43:55;;;;;;;31.02;29.40;;;;;;;;;;5036000;28;20033;-53
2023/06/03 03:46:21;;;;;;;29.38;27.85;;;;;;;;;;5033461;28;20055;-50
2023/06/03 03:48:47;;;;;;;28.77;27.05;;;;;;;;;;5038010;28;20037;-52
2023/06/03 03:51:13;;;;;;;27.90;26.23;;;;;;;;;;5038112;28;20028;-50
2023/06/03 03:53:46;;;;;;;27.73;26.27;;;;;;;;;;5037837;28;20040;-52
2023/06/03 03:56:20;;;;;;;26.55;24.90;;;;;;;;;;5034503;28;20044;-50
2023/06/03 03:58:46;;;;;;;25.35;24.00;;;;;;;;;;5038095;28;20106;-52
2023/06/03 04:01:16;;;;;;;23.42;22.15;;;;;;;;;;5038187;28;20040;-53
2023/06/03 04:03:46;;;;;;;26.65;25.23;;;;;;;;;;5036729;28;20068;-53
2023/06/03 04:06:13;;;;;;;19.93;18.80;;;;;;;;;;5036580;28;20037;-53
2023/06/03 04:08:48;;;;;;;19.33;18.25;;;;;;;;;;5033017;28;20090;-50
2023/06/03 04:11:20;;;;;;;17.85;16.83;;;;;;;;;;5038636;28;20120;-54
2023/06/03 04:13:45;;;;;;;17.75;16.75;;;;;;;;;;5035048;28;20046;-53
2023/06/03 04:16:22;;;;;;;17.75;16.65;;;;;;;;;;5034221;28;20988;-52
2023/06/03 04:18:47;;;;;;;18.70;17.65;;;;;;;;;;5043870;28;20091;-50
2023/06/03 04:21:17;;;;;;;16.05;15.07;;;;;;;;;;5032507;28;20033;-51
2023/06/03 04:23:43;;;;;;;14.38;13.55;;;;;;;;;;5032412;28;20489;-49
2023/06/03 04:26:09;;;;;;;15.20;14.30;;;;;;;;;;5035170;28;20092;-53
2023/06/03 04:28:37;;;;;;;14.68;13.73;;;;;;;;;;5035997;28;20086;-51
2023/06/03 04:31:02;;;;;;;14.02;12.85;;;;;;;;;;5042799;28;20051;-50
2023/06/03 04:33:28;;;;;;;12.82;12.05;;;;;;;;;;5034170;28;20558;-51
2023/06/03 04:35:53;;;;;;;12.45;11.65;;;;;;;;;;5038661;28;20033;-52
2023/06/03 04:38:18;;;;;;;12.65;11.90;;;;;;;;;;5033183;28;20033;-52
2023/06/03 04:40:46;;;;;;;14.00;11.32;;;;;;;;;;5037549;28;20033;-50
2023/06/03 04:43:14;;;;;;;10.93;10.27;;;;;;;;;;5035164;28;20037;-50
2023/06/03 04:45:40;;;;;;;12.68;11.88;;;;;;;;;;5037895;28;20553;-52
2023/06/03 04:48:05;;;;;;;13.13;12.25;;;;;;;;;;5033789;28;20038;-52
2023/06/03 04:50:35;;;;;;;12.30;11.55;;;;;;;;;;5038941;28;20040;-52
2023/06/03 04:53:01;;;;;;;13.48;12.38;;;;;;;;;;5029752;28;22658;-49
2023/06/03 04:55:27;;;;;;;14.48;13.48;;;;;;;;;;5035664;28;20025;-51
2023/06/03 04:57:53;;;;;;;12.73;11.93;;;;;;;;;;5033586;28;20044;-53
2023/06/03 05:00:19;;;;;;;13.13;12.32;;;;;;;;;;5034113;28;20490;-50
2023/06/03 05:02:54;;;;;;;13.38;12.57;;;;;;;;;;5031599;28;20116;-52
2023/06/03 05:05:22;;;;;;;11.18;10.48;;;;;;;;;;5042512;28;20179;-50
2023/06/03 05:07:48;;;;;;;11.20;10.40;;;;;;;;;;5032204;28;20600;-49
2023/06/03 05:10:13;;;;;;;10.20;9.40;;;;;;;;;;5041863;28;20648;-54
2023/06/03 05:12:38;;;;;;;9.52;8.93;;;;;;;;;;5033553;28;20142;-63
2023/06/03 05:15:04;;;;;;;9.55;8.95;;;;;;;;;;5033903;28;20030;-62
2023/06/03 05:17:29;;;;;;;8.20;7.70;;;;;;;;;;5035632;28;20039;-63
2023/06/03 05:19:55;;;;;;;8.50;7.90;;;;;;;;;;5034973;28;20037;-63
2023/06/03 05:22:20;;;;;;;8.27;7.78;;;;;;;;;;5036850;28;20411;-63
2023/06/03 05:24:45;;;;;;;8.43;7.82;;;;;;;;;;5035236;28;20356;-62
2023/06/03 05:27:11;;;;;;;9.30;8.60;;;;;;;;;;5033954;28;20032;-52
2023/06/03 05:29:36;;;;;;;21.20;9.57;;;;;;;;;;5033738;28;20033;-53
2023/06/03 05:32:01;;;;;;;8.80;8.20;;;;;;;;;;5032658;28;20045;-53
2023/06/03 05:34:27;;;;;;;9.35;8.75;;;;;;;;;;5036645;28;20034;-49
2023/06/03 05:36:53;;;;;;;9.02;8.32;;;;;;;;;;5037204;28;20039;-50
2023/06/03 05:39:18;;;;;;;9.30;8.70;;;;;;;;;;5036930;28;20048;-53
2023/06/03 05:41:43;;;;;;;8.95;8.35;;;;;;;;;;5034008;28;20025;-49
2023/06/03 05:44:09;;;;;;;9.35;8.75;;;;;;;;;;5034754;28;20037;-51
2023/06/03 05:46:34;;;;;;;8.77;8.18;;;;;;;;;;5035808;28;20059;-53
2023/06/03 05:48:59;;;;;;;9.43;8.73;;;;;;;;;;5035024;28;20037;-49
2023/06/03 05:51:25;;;;;;;8.95;8.35;;;;;;;;;;5033254;28;20107;-55
2023/06/03 05:53:50;;;;;;;9.68;9.07;;;;;;;;;;5034867;28;20025;-49
2023/06/03 05:56:15;;;;;;;10.05;9.35;;;;;;;;;;5031669;28;20040;-54
2023/06/03 05:58:43;;;;;;;10.02;9.43;;;;;;;;;;5031762;28;20021;-52
2023/06/03 06:01:08;;;;;;;10.00;9.40;;;;;;;;;;5033267;28;20033;-52
2023/06/03 06:03:34;;;;;;;10.68;9.98;;;;;;;;;;5034766;28;20025;-53
2023/06/03 06:06:01;;;;;;;11.20;10.50;;;;;;;;;;5034350;28;20025;-53
2023/06/03 06:08:27;;;;;;;12.82;12.10;;;;;;;;;;5034929;28;20037;-51
2023/06/03 06:10:52;;;;;;;14.68;13.68;;;;;;;;;;5030755;28;20379;-50
2023/06/03 06:13:17;;;;;;;12.93;12.15;;;;;;;;;;5035152;28;20037;-51
2023/06/03 06:16:03;;;;;;;13.13;12.32;;;;;;;;;;5035650;28;20040;-51
2023/06/03 06:18:31;;;;;;;14.38;13.57;;;;;;;;;;5036050;28;20026;-52
2023/06/03 06:20:57;;;;;;;11.60;10.90;;;;;;;;;;5032471;28;20052;-49
2023/06/03 06:23:23;;;;;;;24.30;23.00;;;;;;;;;;5034386;28;20032;-49
2023/06/03 06:25:50;;;;;;;25.55;24.15;;;;;;;;;;5037817;28;20043;-51
2023/06/03 06:28:20;;;;;;;26.63;25.13;;;;;;;;;;5032091;28;20040;-51
2023/06/03 06:30:46;;;;;;;25.88;24.52;;;;;;;;;;5033986;28;20025;-54
2023/06/03 06:33:17;;;;;;;28.30;26.80;;;;;;;;;;5033371;28;20327;-53
2023/06/03 06:35:43;;;;;;;27.23;25.73;;;;;;;;;;5031982;28;20049;-53
2023/06/03 06:38:10;;;;;;;24.92;23.63;;;;;;;;;;5033913;28;20032;-63
2023/06/03 06:40:37;;;;;;;28.08;26.58;;;;;;;;;;5034525;28;20049;-62
2023/06/03 06:43:03;;;;;;;26.48;25.08;;;;;;;;;;5031609;28;20044;-52
2023/06/03 06:45:33;;;;;;;27.50;26.10;;;;;;;;;;5032868;28;20032;-53
2023/06/03 06:48:05;;;;;;;27.52;26.02;;;;;;;;;;5031896;28;20059;-50
2023/06/03 06:50:53;;;;;;;24.65;23.25;;;;;;;;;;5033226;28;20044;-51
2023/06/03 06:53:19;;;;;;;23.00;21.73;;;;;;;;;;5034962;28;20056;-52
2023/06/03 06:56:11;;;;;;;19.75;18.65;;;;;;;;;;5035606;28;20112;-52
2023/06/03 06:58:38;;;;;;;19.17;18.08;;;;;;;;;;5027271;28;20104;-52
2023/06/03 07:01:05;;;;;;;19.63;18.42;;;;;;;;;;5035016;28;20889;-53
2023/06/03 07:03:32;;;;;;;21.13;19.98;;;;;;;;;;5031820;28;20033;-49
2023/06/03 07:05:57;;;;;;;19.52;18.42;;;;;;;;;;5034942;28;20112;-53
2023/06/03 07:08:23;;;;;;;23.35;22.05;;;;;;;;;;5037429;28;20481;-53
2023/06/03 07:10:50;;;;;;;18.30;17.30;;;;;;;;;;5031326;28;20625;-52
2023/06/03 07:13:15;;;;;;;21.52;20.33;;;;;;;;;;5041435;28;20060;-53
2023/06/03 07:15:41;;;;;;;27.27;25.85;;;;;;;;;;5036779;28;20037;-51
2023/06/03 07:18:09;;;;;;;19.75;18.65;;;;;;;;;;5032346;28;20423;-48
2023/06/03 07:20:39;;;;;;;18.85;17.77;;;;;;;;;;5033190;28;20029;-49
2023/06/03 07:23:10;;;;;;;20.20;19.10;;;;;;;;;;5035625;28;20040;-53
2023/06/03 07:25:41;;;;;;;22.15;20.65;;;;;;;;;;5034301;28;20040;-51
2023/06/03 07:28:12;;;;;;;23.60;22.35;;;;;;;;;;5033214;28;20032;-55
2023/06/03 07:30:38;;;;;;;22.35;21.15;;;;;;;;;;5031235;28;20371;-54
2023/06/03 07:33:06;;;;;;;25.52;24.17;;;;;;;;;;5032002;28;20025;-53
2023/06/03 07:35:34;;;;;;;25.30;23.80;;;;;;;;;;5031128;28;20033;-50
2023/06/03 07:37:59;;;;;;;25.80;24.40;;;;;;;;;;5033436;28;20041;-51
2023/06/03 07:40:37;;;;;;;24.23;22.92;;;;;;;;;;5033813;28;20502;-53
2023/06/03 07:43:02;;;;;;;24.13;22.83;;;;;;;;;;5031473;28;20038;-52
2023/06/03 07:45:27;;;;;;;23.55;22.25;;;;;;;;;;5035056;28;20044;-53
2023/06/03 07:47:55;;;;;;;24.30;23.00;;;;;;;;;;5029755;28;20358;-50
2023/06/03 07:50:24;;;;;;;27.02;25.63;;;;;;;;;;5031720;28;20017;-52
2023/06/03 07:52:59;;;;;;;27.50;26.05;;;;;;;;;;5033005;28;20055;-52
2023/06/03 07:55:24;;;;;;;28.48;26.98;;;;;;;;;;5038942;28;20108;-50
2023/06/03 07:57:50;;;;;;;27.92;26.45;;;;;;;;;;5030145;28;20086;-53
2023/06/03 08:00:16;;;;;;;24.95;23.65;;;;;;;;;;5031399;28;20124;-52
2023/06/03 08:02:42;;;;;;;24.35;23.05;;;;;;;;;;5032735;28;20033;-48
2023/06/03 08:05:07;;;;;;;25.50;24.13;;;;;;;;;;5034815;28;20039;-49
2023/06/03 08:07:33;;;;;;;25.88;24.50;;;;;;;;;;5031415;28;20523;-53
2023/06/03 08:09:58;;;;;;;22.83;21.63;;;;;;;;;;5030914;28;20032;-51
2023/06/03 08:12:33;;;;;;;24.33;23.02;;;;;;;;;;5030792;28;20034;-50
2023/06/03 08:15:01;;;;;;;27.35;25.90;;;;;;;;;;5031104;28;20029;-51
2023/06/03 08:17:46;;;;;;;22.85;21.63;;;;;;;;;;5033320;28;20029;-51
2023/06/03 08:20:12;;;;;;;23.75;22.40;;;;;;;;;;5030555;28;20045;-48
2023/06/03 08:22:43;;;;;;;23.73;22.42;;;;;;;;;;5034180;28;20136;-52
2023/06/03 08:25:09;;;;;;;24.90;23.60;;;;;;;;;;5016136;28;20596;-51
2023/06/03 08:27:36;;;;;;;26.55;25.15;;;;;;;;;;5029278;28;20032;-50
2023/06/03 08:30:06;;;;;;;29.48;27.85;;;;;;;;;;5033047;28;20061;-50
2023/06/03 08:32:35;;;;;;;28.95;27.42;;;;;;;;;;5032318;28;20029;-52
2023/06/03 08:35:01;;;;;;;32.83;31.13;;;;;;;;;;5033721;28;20084;-52
2023/06/03 08:37:28;;;;;;;35.28;33.40;;;;;;;;;;5034485;28;20025;-52
2023/06/03 08:39:54;;;;;;;36.60;34.67;;;;;;;;;;5033050;28;20021;-50
2023/06/03 08:42:28;;;;;;;41.97;39.80;;;;;;;;;;5037818;28;20033;-48
2023/06/03 08:45:05;;;;;;;38.63;36.60;;;;;;;;;;5039260;28;20034;-51
2023/06/03 08:48:04;;;;;;;36.92;35.03;;;;;;;;;;5038364;28;20048;-50
2023/06/03 08:50:32;;;;;;;35.97;33.97;;;;;;;;;;5036502;28;20159;-53
2023/06/03 08:53:00;;;;;;;40.20;38.15;;;;;;;;;;5035404;28;20524;-49
2023/06/03 08:55:26;;;;;;;48.03;45.53;;;;;;;;;;5037788;28;20355;-52
2023/06/03 08:58:02;;;;;;;50.42;47.88;;;;;;;;;;5035230;28;20028;-50
2023/06/03 09:00:30;;;;;;;50.17;47.42;;;;;;;;;;5036824;28;20040;-51
2023/06/03 09:02:56;;;;;;;54.60;51.83;;;;;;;;;;5035759;28;20037;-51
2023/06/03 09:05:22;;;;;;;54.47;51.72;;;;;;;;;;5031581;28;20219;-50
2023/06/03 09:07:49;;;;;;;53.60;50.88;;;;;;;;;;5034025;28;20195;-48
2023/06/03 09:10:16;;;;;;;53.80;51.03;;;;;;;;;;5032950;28;20033;-48
2023/06/03 09:12:43;;;;;;;56.72;53.88;;;;;;;;;;5034792;28;20041;-53
2023/06/03 09:15:10;;;;;;;67.03;63.70;;;;;;;;;;5035822;28;20448;-53
2023/06/03 09:17:36;;;;;;;66.88;63.55;;;;;;;;;;5036242;28;20460;-50
2023/06/03 09:20:02;;;;;;;71.68;68.13;;;;;;;;;;5034295;28;20040;-51
2023/06/03 09:22:28;;;;;;;75.13;71.38;;;;;;;;;;5036687;28;20029;-52
2023/06/03 09:24:54;;;;;;;77.30;73.45;;;;;;;;;;5034379;28;20029;-52
2023/06/03 09:27:19;;;;;;;68.63;65.20;;;;;;;;;;5034211;28;23251;-54
2023/06/03 09:29:45;;;;;;;79.13;75.20;;;;;;;;;;5034939;28;20043;-60
2023/06/03 09:32:10;;;;;;;66.53;63.20;;;;;;;;;;5035335;28;20459;-61
2023/06/03 09:34:36;;;;;;;81.45;77.40;;;;;;;;;;5035248;28;20363;-62
2023/06/03 09:37:09;;;;;;;53.08;50.40;;;;;;;;;;5032534;28;20029;-60
2023/06/03 09:39:36;;;;;;;68.43;64.75;;;;;;;;;;5034027;28;20068;-62
2023/06/03 09:42:02;;;;;;;67.78;64.40;;;;;;;;;;5034490;28;20029;-63
2023/06/03 09:44:41;;;;;;;53.92;51.13;;;;;;;;;;5031579;28;20041;-61
2023/06/03 09:47:07;;;;;;;56.47;53.63;;;;;;;;;;5029568;28;20148;-63
2023/06/03 09:49:33;;;;;;;70.35;66.75;;;;;;;;;;5034118;28;20037;-61
2023/06/03 09:51:58;;;;;;;60.00;56.97;;;;;;;;;;5036665;28;20028;-60
2023/06/03 09:54:24;;;;;;;50.85;48.25;;;;;;;;;;5033299;28;20563;-62
2023/06/03 09:56:51;;;;;;;56.70;53.88;;;;;;;;;;5032190;28;20029;-63
2023/06/03 09:59:25;;;;;;;56.42;53.63;;;;;;;;;;5033409;28;20490;-64
2023/06/03 10:01:54;;;;;;;63.70;60.30;;;;;;;;;;5033435;28;20044;-53
2023/06/03 10:04:42;;;;;;;52.97;50.03;;;;;;;;;;5033937;28;20511;-53
2023/06/03 10:07:08;;;;;;;51.65;49.05;;;;;;;;;;5031486;28;20475;-53
2023/06/03 10:09:34;;;;;;;48.97;46.53;;;;;;;;;;5032828;28;20029;-50
2023/06/03 10:11:59;;;;;;;55.95;53.15;;;;;;;;;;5033509;28;20047;-54
2023/06/03 10:14:26;;;;;;;55.72;52.90;;;;;;;;;;5033319;28;20163;-53
2023/06/03 10:17:06;;;;;;;56.80;53.97;;;;;;;;;;5034203;28;20033;-62
2023/06/03 10:19:33;;;;;;;59.40;56.38;;;;;;;;;;5035236;28;20040;-62
2023/06/03 10:21:59;;;;;;;54.55;51.80;;;;;;;;;;5033724;28;20033;-51
2023/06/03 10:24:27;;;;;;;65.45;62.20;;;;;;;;;;5037497;28;20098;-51
2023/06/03 10:26:53;;;;;;;70.57;67.03;;;;;;;;;;5034903;28;20041;-55
2023/06/03 10:29:20;;;;;;;62.80;59.63;;;;;;;;;;5031684;28;20037;-54
2023/06/03 10:31:47;;;;;;;66.13;62.85;;;;;;;;;;5035128;28;20025;-53
2023/06/03 10:34:16;;;;;;;73.05;68.45;;;;;;;;;;5031441;28;20136;-63
2023/06/03 10:36:42;;;;;;;68.30;64.90;;;;;;;;;;5034921;28;20032;-63
2023/06/03 10:39:13;;;;;;;67.75;64.35;;;;;;;;;;5037123;28;20517;-60
2023/06/03 10:41:38;;;;;;;;;;;;;;;;;;5034715;28;20120;-63
2023/06/03 10:44:04;;;;;;;69.80;66.32;;;;;;;;;;5037733;28;20354;-64
2023/06/03 10:46:30;;;;;;;71.85;68.10;;;;;;;;;;5032977;28;20034;-63
2023/06/03 10:48:56;;;;;;;74.60;70.90;;;;;;;;;;5031354;28;20064;-62
2023/06/03 10:52:06;;;;;;;58.22;55.30;;;;;;;;;;5035682;28;20033;-61
2023/06/03 10:54:53;;;;;;;59.20;56.22;;;;;;;;;;5033182;28;20114;-62
2023/06/03 10:57:21;;;;;;;59.22;56.17;;;;;;;;;;5032015;28;20164;-61
2023/06/03 10:59:46;;;;;;;56.40;53.55;;;;;;;;;;5030217;28;20068;-62
2023/06/03 11:02:13;;;;;;;56.35;53.50;;;;;;;;;;5032373;28;20518;-60
2023/06/03 11:04:39;;;;;;;59.30;56.28;;;;;;;;;;5033470;28;20033;-63
2023/06/03 11:07:31;;;;;;;58.13;55.20;;;;;;;;;;5031293;28;20033;-64
2023/06/03 11:09:57;;;;;;;58.67;55.75;;;;;;;;;;5027915;28;20060;-60
2023/06/03 11:12:50;;;;;;;60.03;56.92;;;;;;;;;;5029511;28;20340;-61
2023/06/03 11:15:15;;;;;;;59.80;56.70;;;;;;;;;;5030658;28;20079;-62
2023/06/03 11:17:42;;;;;;;55.92;53.13;;;;;;;;;;5030144;28;20124;-60
2023/06/03 11:20:08;;;;;;;56.60;53.58;;;;;;;;;;5027932;28;20483;-59
2023/06/03 11:22:35;;;;;;;57.95;54.95;;;;;;;;;;5030925;28;20033;-61
2023/06/03 11:25:00;;;;;;;55.83;53.03;;;;;;;;;;5030745;28;20064;-61
2023/06/03 11:27:27;;;;;;;54.38;51.63;;;;;;;;;;5031378;28;20063;-52
2023/06/03 11:29:58;;;;;;;53.13;50.45;;;;;;;;;;5032128;28;20048;-54
2023/06/03 11:32:29;;;;;;;53.63;50.88;;;;;;;;;;5031594;28;20329;-60
2023/06/03 11:35:04;;;;;;;52.97;50.28;;;;;;;;;;5031858;28;20037;-54
2023/06/03 11:37:53;;;;;;;51.53;48.53;;;;;;;;;;5030225;28;20040;-53
2023/06/03 11:40:20;;;;;;;49.90;47.40;;;;;;;;;;5025550;28;20045;-55
2023/06/03 11:42:51;;;;;;;52.17;49.50;;;;;;;;;;5030902;28;20038;-62
2023/06/03 11:45:28;;;;;;;57.42;54.53;;;;;;;;;;5031833;28;20037;-63
2023/06/03 11:47:59;;;;;;;64.13;60.92;;;;;;;;;;5030661;28;20038;-62
2023/06/03 11:50:29;;;;;;;65.93;62.60;;;;;;;;;;5030157;28;20045;-63
2023/06/03 11:52:55;;;;;;;61.75;58.67;;;;;;;;;;5027574;28;20072;-63
2023/06/03 11:55:25;;;;;;;62.22;59.13;;;;;;;;;;5030558;28;20125;-62
2023/06/03 11:57:50;;;;;;;58.35;55.40;;;;;;;;;;5031565;28;20033;-62
2023/06/03 12:00:17;;;;;;;76.85;73.03;;;;;;;;;;5029593;28;20392;-64
2023/06/03 12:02:46;;;;;;;61.20;58.10;;;;;;;;;;5031369;28;20037;-61
2023/06/03 12:05:13;;;;;;;65.82;62.53;;;;;;;;;;5038537;28;20029;-62
2023/06/03 12:07:38;;;;;;;62.47;59.35;;;;;;;;;;5034189;28;20082;-63
2023/06/03 12:10:05;;;;;;;67.10;63.67;;;;;;;;;;5034997;28;20049;-62
2023/06/03 12:12:31;;;;;;;56.10;53.20;;;;;;;;;;5036641;28;20492;-50
2023/06/03 12:15:06;;;;;;;60.95;57.88;;;;;;;;;;5034584;28;20040;-50
2023/06/03 12:17:32;;;;;;;55.75;52.90;;;;;;;;;;5035599;28;21403;-63
2023/06/03 12:20:00;;;;;;;68.45;65.03;;;;;;;;;;5036992;28;20037;-64
2023/06/03 12:22:27;;;;;;;60.97;57.88;;;;;;;;;;5037194;28;20041;-61
2023/06/03 12:24:52;;;;;;;55.53;52.75;;;;;;;;;;5030272;28;20423;-63
2023/06/03 12:27:21;;;;;;;67.60;64.18;;;;;;;;;;5033228;28;20045;-63
2023/06/03 12:29:58;;;;;;;54.55;51.75;;;;;;;;;;5033985;28;20622;-63
2023/06/03 12:32:32;;;;;;;57.78;54.88;;;;;;;;;;5035516;28;20094;-63
2023/06/03 12:35:09;;;;;;;55.72;52.92;;;;;;;;;;5032664;28;20033;-63
2023/06/03 12:37:37;;;;;;;58.97;55.40;;;;;;;;;;5043582;28;20032;-53
2023/06/03 12:40:03;;;;;;;57.55;54.63;;;;;;;;;;5035841;28;20057;-62
2023/06/03 12:42:46;;;;;;;55.88;52.78;;;;;;;;;;5034569;28;20032;-62
2023/06/03 12:45:23;;;;;;;55.80;53.00;;;;;;;;;;5033561;28;20096;-62
2023/06/03 12:47:48;;;;;;;55.85;53.03;;;;;;;;;;5035562;28;20064;-60
2023/06/03 12:50:15;;;;;;;56.28;53.40;;;;;;;;;;5035877;28;20028;-60
2023/06/03 12:52:41;;;;;;;57.22;54.33;;;;;;;;;;5034515;28;20065;-51
2023/06/03 12:55:09;;;;;;;62.47;59.33;;;;;;;;;;5033795;28;20064;-61
2023/06/03 12:57:37;;;;;;;55.45;52.60;;;;;;;;;;5032185;28;20128;-60
2023/06/03 13:00:08;;;;;;;54.40;51.63;;;;;;;;;;5033866;28;20037;-60
2023/06/03 13:02:38;;;;;;;65.70;61.72;;;;;;;;;;5033239;28;20021;-52
2023/06/03 13:05:04;;;;;;;48.90;46.40;;;;;;;;;;5036447;28;20103;-51
2023/06/03 13:07:30;;;;;;;48.47;45.97;;;;;;;;;;5035862;28;20037;-61
2023/06/03 13:09:58;;;;;;;49.03;46.50;;;;;;;;;;5037083;28;20035;-63
2023/06/03 13:12:24;;;;;;;55.53;52.72;;;;;;;;;;5036084;28;20289;-63
2023/06/03 13:14:49;;;;;;;48.53;46.03;;;;;;;;;;5034507;28;20025;-64
2023/06/03 13:17:15;;;;;;;50.58;48.03;;;;;;;;;;5034083;28;20051;-63
2023/06/03 13:19:41;;;;;;;44.45;42.15;;;;;;;;;;5035102;28;20460;-63
2023/06/03 13:22:07;;;;;;;43.35;41.15;;;;;;;;;;5036594;28;20420;-61
2023/06/03 13:24:33;;;;;;;50.30;47.72;;;;;;;;;;5036004;28;20514;-62
2023/06/03 13:26:58;;;;;;;46.10;43.75;;;;;;;;;;5034748;28;20037;-63
2023/06/03 13:29:24;;;;;;;75.45;71.65;;;;;;;;;;5031883;28;20048;-62
2023/06/03 13:31:49;;;;;;;66.93;63.58;;;;;;;;;;5033698;28;20029;-60
2023/06/03 13:34:15;;;;;;;77.55;73.55;;;;;;;;;;5030864;28;20102;-62
2023/06/03 13:36:40;;;;;;;70.80;67.28;;;;;;;;;;5033527;28;20025;-62
2023/06/03 13:39:06;;;;;;;51.05;48.47;;;;;;;;;;5034010;28;20460;-63
2023/06/03 13:41:31;;;;;;;63.92;60.70;;;;;;;;;;5034159;28;20040;-62
2023/06/03 13:43:56;;;;;;;58.70;55.75;;;;;;;;;;5035978;28;20032;-62
2023/06/03 13:46:22;;;;;;;69.82;66.38;;;;;;;;;;5033779;28;20566;-62
2023/06/03 13:48:47;;;;;;;82.63;78.55;;;;;;;;;;5033232;28;20041;-62
2023/06/03 13:51:12;;;;;;;64.40;61.17;;;;;;;;;;5035153;28;20041;-61
2023/06/03 13:53:38;;;;;;;63.65;60.47;;;;;;;;;;5036933;28;20051;-62
2023/06/03 13:56:03;;;;;;;61.08;57.97;;;;;;;;;;5036464;28;20068;-62
2023/06/03 13:58:29;;;;;;;71.43;67.80;;;;;;;;;;5033673;28;20515;-64
2023/06/03 14:00:54;;;;;;;70.38;66.88;;;;;;;;;;5037051;28;20037;-52
2023/06/03 14:03:20;;;;;;;71.72;68.15;;;;;;;;;;5037706;28;20044;-63
2023/06/03 14:05:46;;;;;;;101.30;96.28;;;;;;;;;;5035234;28;20033;-62
2023/06/03 14:08:13;;;;;;;101.80;96.70;;;;;;;;;;5034650;28;20040;-62
2023/06/03 14:10:41;;;;;;;99.50;94.43;;;;;;;;;;5035245;28;20037;-50
2023/06/03 14:13:07;;;;;;;95.30;90.60;;;;;;;;;;5034114;28;20052;-62
2023/06/03 14:15:35;;;;;;;92.55;87.97;;;;;;;;;;5031975;28;20446;-62
2023/06/03 14:18:00;;;;;;;88.75;84.38;;;;;;;;;;5034164;28;20037;-52
2023/06/03 14:20:26;;;;;;;97.75;92.93;;;;;;;;;;5033577;28;20514;-64
2023/06/03 14:22:51;;;;;;;67.82;64.43;;;;;;;;;;5034354;28;20064;-54